createdAt,value
2022-12-29T00:02:04.196Z,16.75
2022-12-29T00:04:31.678Z,17.85
2022-12-29T00:06:59.031Z,16.75
2022-12-29T00:09:26.865Z,16.20
2022-12-29T00:11:58.102Z,16.45
2022-12-29T00:14:43.874Z,15.13
2022-12-29T00:17:11.269Z,15.45
2022-12-29T00:19:57.264Z,14.90
2022-12-29T00:22:43.270Z,15.00
2022-12-29T00:25:30.908Z,15.45
2022-12-29T00:28:17.464Z,14.68
2022-12-29T00:31:04.049Z,14.50
2022-12-29T00:33:53.542Z,14.63
2022-12-29T00:36:36.093Z,14.27
2022-12-29T00:39:31.853Z,13.75
2022-12-29T00:42:23.604Z,14.70
2022-12-29T00:44:50.903Z,15.02
2022-12-29T00:47:18.348Z,14.05
2022-12-29T00:49:45.916Z,14.73
2022-12-29T00:52:15.862Z,14.30
2022-12-29T00:54:46.035Z,14.18
2022-12-29T00:57:13.732Z,13.80
2022-12-29T00:59:42.785Z,14.05
2022-12-29T01:02:19.741Z,12.93
2022-12-29T01:04:47.884Z,12.95
2022-12-29T01:07:17.214Z,12.48
2022-12-29T01:10:04.549Z,12.40
2022-12-29T01:12:43.245Z,12.48
2022-12-29T01:15:15.473Z,13.02
2022-12-29T01:17:44.351Z,12.95
2022-12-29T01:20:12.216Z,12.57
2022-12-29T01:22:40.038Z,12.95
2022-12-29T01:25:07.986Z,12.15
2022-12-29T01:27:37.598Z,12.13
2022-12-29T01:30:05.658Z,13.20
2022-12-29T01:32:33.097Z,12.27
2022-12-29T01:35:00.341Z,13.02
2022-12-29T01:37:27.638Z,12.85
2022-12-29T01:39:55.021Z,13.10
2022-12-29T01:42:25.436Z,12.93
2022-12-29T01:44:58.859Z,13.63
2022-12-29T01:47:35.825Z,13.35
2022-12-29T01:50:28.434Z,13.85
2022-12-29T01:53:08.476Z,13.50
2022-12-29T01:55:41.717Z,13.73
2022-12-29T01:58:11.962Z,14.82
2022-12-29T02:00:39.365Z,14.93
2022-12-29T02:03:08.495Z,13.68
2022-12-29T02:05:39.659Z,14.30
2022-12-29T02:08:09.266Z,15.02
2022-12-29T02:10:37.787Z,14.65
2022-12-29T02:13:05.284Z,14.45
2022-12-29T02:15:52.805Z,15.18
2022-12-29T02:18:49.652Z,15.02
2022-12-29T02:21:49.089Z,13.85
2022-12-29T02:24:42.817Z,14.85
2022-12-29T02:27:27.332Z,14.05
2022-12-29T02:30:09.213Z,14.18
2022-12-29T02:33:02.151Z,14.60
2022-12-29T02:35:57.921Z,13.88
2022-12-29T02:38:40.925Z,13.85
2022-12-29T02:41:28.492Z,13.80
2022-12-29T02:44:28.220Z,14.65
2022-12-29T02:47:24.170Z,14.32
2022-12-29T02:50:04.605Z,14.55
2022-12-29T02:52:40.182Z,14.60
2022-12-29T02:55:08.049Z,15.02
2022-12-29T02:57:36.189Z,15.27
2022-12-29T03:00:19.249Z,15.90
2022-12-29T03:03:10.404Z,13.90
2022-12-29T03:05:53.836Z,14.32
2022-12-29T03:08:44.236Z,14.50
2022-12-29T03:11:34.567Z,14.68
2022-12-29T03:14:35.596Z,15.15
2022-12-29T03:17:15.545Z,14.80
2022-12-29T03:19:48.673Z,14.75
2022-12-29T03:22:29.099Z,13.98
2022-12-29T03:25:35.682Z,14.77
2022-12-29T03:28:36.049Z,13.82
2022-12-29T03:31:05.489Z,14.32
2022-12-29T03:33:33.904Z,13.82
2022-12-29T03:36:06.212Z,13.90
2022-12-29T03:38:39.621Z,14.00
2022-12-29T03:41:12.293Z,14.13
2022-12-29T03:43:39.683Z,14.60
2022-12-29T03:46:07.679Z,14.23
2022-12-29T03:48:35.607Z,13.50
2022-12-29T03:51:04.314Z,13.90
2022-12-29T03:53:31.943Z,14.13
2022-12-29T03:55:59.239Z,13.30
2022-12-29T03:58:26.874Z,13.15
2022-12-29T04:01:20.792Z,14.27
2022-12-29T04:03:48.296Z,13.60
2022-12-29T04:06:19.234Z,13.45
2022-12-29T04:08:51.218Z,13.55
2022-12-29T04:11:18.602Z,14.00
2022-12-29T04:13:46.618Z,13.43
2022-12-29T04:16:18.198Z,14.15
2022-12-29T04:18:45.946Z,13.75
2022-12-29T04:21:13.695Z,14.05
2022-12-29T04:23:43.615Z,13.75
2022-12-29T04:26:11.611Z,14.23
2022-12-29T04:28:59.120Z,14.68
2022-12-29T04:31:49.531Z,14.45
2022-12-29T04:34:17.181Z,13.98
2022-12-29T04:36:48.067Z,14.82
2022-12-29T04:39:15.371Z,13.60
2022-12-29T04:41:43.805Z,14.20
2022-12-29T04:44:16.817Z,13.65
2022-12-29T04:47:20.773Z,14.02
2022-12-29T04:50:14.120Z,13.55
2022-12-29T04:52:44.923Z,13.23
2022-12-29T04:55:14.404Z,13.52
2022-12-29T04:57:42.451Z,12.65
2022-12-29T05:00:12.366Z,14.52
2022-12-29T05:02:40.154Z,13.57
2022-12-29T05:05:08.836Z,12.30
2022-12-29T05:07:41.661Z,11.95
2022-12-29T05:10:09.820Z,11.38
2022-12-29T05:12:38.950Z,10.90
2022-12-29T05:15:08.192Z,11.07
2022-12-29T05:17:36.034Z,12.25
2022-12-29T05:20:05.140Z,10.93
2022-12-29T05:22:33.752Z,10.35
2022-12-29T05:25:03.858Z,11.55
2022-12-29T05:27:34.525Z,12.38
2022-12-29T05:30:11.517Z,11.80
2022-12-29T05:32:38.882Z,11.13
2022-12-29T05:35:06.621Z,12.02
2022-12-29T05:37:35.288Z,12.13
2022-12-29T05:40:04.197Z,11.50
2022-12-29T05:42:31.648Z,11.43
2022-12-29T05:45:12.697Z,11.23
2022-12-29T05:47:55.156Z,11.93
2022-12-29T05:50:50.013Z,11.40
2022-12-29T05:53:20.062Z,11.38
2022-12-29T05:55:49.309Z,12.00
2022-12-29T05:58:18.500Z,12.40
2022-12-29T06:00:46.084Z,12.13
2022-12-29T06:03:14.053Z,11.85
2022-12-29T06:05:42.649Z,12.10
2022-12-29T06:08:09.938Z,12.38
2022-12-29T06:10:39.610Z,12.65
2022-12-29T06:13:07.326Z,12.95
2022-12-29T06:15:37.778Z,11.25
2022-12-29T06:18:25.038Z,12.35
2022-12-29T06:20:53.129Z,12.00
2022-12-29T06:23:20.628Z,11.48
2022-12-29T06:25:49.660Z,11.82
2022-12-29T06:28:18.170Z,12.13
2022-12-29T06:30:49.859Z,11.73
2022-12-29T06:33:18.893Z,12.18
2022-12-29T06:35:47.042Z,11.98
2022-12-29T06:38:15.646Z,11.73
2022-12-29T06:40:46.136Z,11.55
2022-12-29T06:43:25.392Z,11.88
2022-12-29T06:46:09.099Z,13.05
2022-12-29T06:48:36.785Z,11.73
2022-12-29T06:51:04.472Z,12.55
2022-12-29T06:53:31.704Z,12.15
2022-12-29T06:55:58.992Z,11.93
2022-12-29T06:58:28.626Z,11.23
2022-12-29T07:00:55.872Z,10.70
2022-12-29T07:03:23.269Z,10.75
2022-12-29T07:05:51.023Z,10.95
2022-12-29T07:08:18.287Z,10.68
2022-12-29T07:10:47.843Z,10.80
2022-12-29T07:13:40.261Z,10.93
2022-12-29T07:16:09.256Z,10.93
2022-12-29T07:18:37.113Z,10.63
2022-12-29T07:21:05.305Z,11.38
2022-12-29T07:23:34.779Z,11.20
2022-12-29T07:26:08.279Z,10.63
2022-12-29T07:28:36.927Z,10.60
2022-12-29T07:31:04.356Z,10.57
2022-12-29T07:33:32.979Z,10.93
2022-12-29T07:36:00.443Z,11.55
2022-12-29T07:38:30.793Z,11.38
2022-12-29T07:40:59.347Z,11.57
2022-12-29T07:43:52.162Z,11.77
2022-12-29T07:46:55.112Z,12.57
2022-12-29T07:49:20.252Z,12.13
2022-12-29T07:51:47.823Z,12.15
2022-12-29T07:54:15.307Z,11.98
2022-12-29T07:56:44.693Z,12.35
2022-12-29T07:59:17.000Z,12.18
2022-12-29T08:02:09.608Z,12.00
2022-12-29T08:04:38.477Z,12.38
2022-12-29T08:07:05.968Z,13.02
2022-12-29T08:09:33.308Z,13.20
2022-12-29T08:12:00.599Z,13.63
2022-12-29T08:14:27.948Z,13.52
2022-12-29T08:16:55.348Z,13.35
2022-12-29T08:19:22.608Z,13.27
2022-12-29T08:21:53.360Z,12.75
2022-12-29T08:24:20.717Z,13.70
2022-12-29T08:27:16.098Z,13.50
2022-12-29T08:29:47.596Z,14.65
2022-12-29T08:32:16.550Z,15.00
2022-12-29T08:34:45.879Z,15.88
2022-12-29T08:37:13.343Z,16.58
2022-12-29T08:39:40.612Z,16.73
2022-12-29T08:42:08.073Z,14.10
2022-12-29T08:44:35.461Z,14.13
2022-12-29T08:47:02.777Z,13.50
2022-12-29T08:49:30.038Z,13.77
2022-12-29T08:51:59.789Z,13.43
2022-12-29T08:54:27.073Z,13.63
2022-12-29T08:56:54.818Z,13.73
2022-12-29T08:59:27.737Z,13.68
2022-12-29T09:01:58.262Z,13.60
2022-12-29T09:04:27.896Z,13.15
2022-12-29T09:06:55.387Z,14.13
2022-12-29T09:09:24.933Z,13.20
2022-12-29T09:11:52.321Z,14.13
2022-12-29T09:14:20.172Z,14.68
2022-12-29T09:17:06.186Z,14.80
2022-12-29T09:19:33.441Z,13.93
2022-12-29T09:22:00.756Z,13.93
2022-12-29T09:24:28.015Z,14.35
2022-12-29T09:26:57.403Z,14.27
2022-12-29T09:29:27.086Z,16.63
2022-12-29T09:31:57.498Z,16.40
2022-12-29T09:34:24.804Z,15.93
2022-12-29T09:36:59.213Z,16.20
2022-12-29T09:39:26.677Z,17.30
2022-12-29T09:42:05.325Z,16.23
2022-12-29T09:47:47.768Z,16.58
2022-12-29T09:50:21.751Z,18.17
2022-12-29T09:53:08.698Z,18.67
2022-12-29T09:58:36.039Z,18.20
2022-12-29T10:01:07.698Z,17.70
2022-12-29T10:03:48.326Z,20.45
2022-12-29T10:06:56.442Z,20.88
2022-12-29T10:09:54.984Z,20.65
2022-12-29T10:12:57.379Z,20.80
2022-12-29T10:15:58.512Z,20.60
2022-12-29T10:18:44.564Z,21.35
2022-12-29T10:21:57.192Z,19.50
2022-12-29T10:24:27.673Z,20.05
2022-12-29T10:26:59.023Z,21.30
2022-12-29T10:29:34.714Z,20.73
2022-12-29T10:32:10.402Z,20.10
2022-12-29T10:34:41.913Z,22.67
2022-12-29T10:37:48.139Z,23.65
2022-12-29T10:40:20.051Z,23.85
2022-12-29T10:42:53.048Z,24.02
2022-12-29T10:45:22.508Z,24.67
2022-12-29T10:48:04.631Z,24.10
2022-12-29T10:50:31.992Z,23.60
2022-12-29T10:53:05.724Z,25.30
2022-12-29T10:55:39.051Z,25.00
2022-12-29T10:58:14.665Z,24.75
2022-12-29T11:00:43.918Z,19.97
2022-12-29T11:03:46.477Z,19.80
2022-12-29T11:06:30.165Z,16.33
2022-12-29T11:09:10.940Z,24.10
2022-12-29T11:11:38.408Z,24.55
2022-12-29T11:14:21.299Z,25.13
2022-12-29T11:17:02.613Z,26.58
2022-12-29T11:19:37.526Z,26.10
2022-12-29T11:22:25.819Z,26.58
2022-12-29T11:24:54.770Z,27.40
2022-12-29T11:27:27.380Z,30.30
2022-12-29T11:30:15.629Z,28.58
2022-12-29T11:32:52.283Z,31.00
2022-12-29T11:35:37.974Z,31.80
2022-12-29T11:38:26.436Z,33.60
2022-12-29T11:40:53.999Z,35.03
2022-12-29T11:43:34.433Z,33.83
2022-12-29T11:46:05.702Z,35.25
2022-12-29T11:48:42.466Z,35.70
2022-12-29T11:51:12.510Z,35.55
2022-12-29T11:53:52.554Z,34.20
2022-12-29T11:56:41.261Z,36.58
2022-12-29T11:59:27.777Z,34.92
2022-12-29T12:01:57.305Z,35.53
2022-12-29T12:04:30.088Z,35.97
2022-12-29T12:07:03.631Z,36.17
2022-12-29T12:09:35.883Z,36.20
2022-12-29T12:12:04.602Z,33.33
2022-12-29T12:14:39.580Z,34.30
2022-12-29T12:17:36.786Z,32.75
2022-12-29T12:20:22.928Z,34.55
2022-12-29T12:23:25.068Z,34.47
2022-12-29T12:26:12.433Z,32.72
2022-12-29T12:28:45.829Z,34.33
2022-12-29T12:32:03.646Z,33.45
2022-12-29T12:34:43.869Z,34.10
2022-12-29T12:37:37.954Z,37.05
2022-12-29T12:40:23.232Z,35.33
2022-12-29T12:43:12.265Z,36.58
2022-12-29T12:45:56.376Z,36.38
2022-12-29T12:49:01.516Z,35.97
2022-12-29T12:51:56.134Z,35.05
2022-12-29T12:54:44.242Z,34.42
2022-12-29T12:57:58.548Z,34.30
2022-12-29T13:00:26.628Z,33.33
2022-12-29T13:02:54.021Z,33.67
2022-12-29T13:05:40.732Z,32.80
2022-12-29T13:08:31.629Z,33.90
2022-12-29T13:11:06.961Z,33.92
2022-12-29T13:13:54.853Z,34.55
2022-12-29T13:16:41.038Z,33.58
2022-12-29T13:19:49.811Z,34.40
2022-12-29T13:22:42.532Z,35.60
2022-12-29T13:25:51.339Z,33.13
2022-12-29T13:28:30.590Z,33.08
2022-12-29T13:31:12.694Z,31.23
2022-12-29T13:34:06.155Z,32.08
2022-12-29T13:36:52.510Z,32.85
2022-12-29T13:39:28.475Z,32.92
2022-12-29T13:41:57.110Z,31.02
2022-12-29T13:44:36.281Z,33.35
2022-12-29T13:47:33.946Z,34.60
2022-12-29T13:50:05.133Z,32.17
2022-12-29T13:52:42.965Z,31.92
2022-12-29T13:55:25.450Z,32.17
2022-12-29T13:58:27.300Z,32.42
2022-12-29T14:01:06.200Z,32.67
2022-12-29T14:03:49.039Z,33.65
2022-12-29T14:06:41.406Z,32.97
2022-12-29T14:09:35.273Z,33.90
2022-12-29T14:12:23.640Z,34.33
2022-12-29T14:14:51.443Z,34.08
2022-12-29T14:17:22.083Z,35.22
2022-12-29T14:19:56.192Z,36.05
2022-12-29T14:22:33.054Z,36.60
2022-12-29T14:25:01.638Z,33.80
2022-12-29T14:27:29.287Z,34.53
2022-12-29T14:29:59.634Z,36.38
2022-12-29T14:32:35.026Z,34.45
2022-12-29T14:35:42.199Z,37.53
2022-12-29T14:38:30.666Z,37.00
2022-12-29T14:41:29.371Z,37.15
2022-12-29T14:44:07.785Z,36.25
2022-12-29T14:46:50.083Z,35.45
2022-12-29T14:49:21.097Z,34.97
2022-12-29T14:51:49.885Z,33.47
2022-12-29T14:54:32.777Z,36.03
2022-12-29T14:57:18.136Z,36.25
2022-12-29T14:59:46.965Z,36.58
2022-12-29T15:02:23.458Z,39.30
2022-12-29T15:04:52.850Z,38.50
2022-12-29T15:07:21.164Z,39.35
2022-12-29T15:10:13.181Z,41.28
2022-12-29T15:13:05.368Z,40.92
2022-12-29T15:15:39.045Z,41.60
2022-12-29T15:18:15.832Z,42.58
2022-12-29T15:20:43.861Z,43.40
2022-12-29T15:23:15.745Z,42.63
2022-12-29T15:26:22.014Z,43.15
2022-12-29T15:28:53.527Z,42.63
2022-12-29T15:31:30.529Z,42.22
2022-12-29T15:34:12.349Z,42.58
2022-12-29T15:36:41.283Z,42.42
2022-12-29T15:39:28.730Z,44.88
2022-12-29T15:42:06.153Z,41.58
2022-12-29T15:44:40.428Z,41.90
2022-12-29T15:47:22.751Z,42.75
2022-12-29T15:49:56.194Z,41.88
2022-12-29T15:52:33.178Z,40.30
2022-12-29T15:55:01.787Z,41.70
2022-12-29T15:57:42.555Z,43.00
2022-12-29T16:00:28.958Z,44.17
2022-12-29T16:03:00.374Z,46.35
2022-12-29T16:05:39.949Z,44.15
2022-12-29T16:08:38.069Z,44.35
2022-12-29T16:11:31.528Z,43.78
2022-12-29T16:13:59.749Z,44.40
2022-12-29T16:16:31.929Z,45.80
2022-12-29T16:18:59.731Z,45.95
2022-12-29T16:21:35.123Z,46.88
2022-12-29T16:24:07.858Z,46.43
2022-12-29T16:26:35.287Z,47.45
2022-12-29T16:29:07.245Z,47.08
2022-12-29T16:31:50.633Z,49.63
2022-12-29T16:34:30.410Z,51.28
2022-12-29T16:37:20.479Z,49.97
2022-12-29T16:39:47.894Z,49.42
2022-12-29T16:42:36.770Z,48.92
2022-12-29T16:45:19.522Z,48.92
2022-12-29T16:47:56.205Z,51.33
2022-12-29T16:50:28.595Z,49.58
2022-12-29T16:52:58.739Z,50.72
2022-12-29T16:55:26.196Z,51.63
2022-12-29T16:57:57.207Z,51.20
2022-12-29T17:00:27.092Z,51.40
2022-12-29T17:02:58.496Z,51.95
2022-12-29T17:05:29.628Z,51.30
2022-12-29T17:08:03.315Z,50.00
2022-12-29T17:10:50.582Z,48.15
2022-12-29T17:13:17.999Z,49.70
2022-12-29T17:15:45.399Z,48.55
2022-12-29T17:18:14.090Z,49.08
2022-12-29T17:20:42.131Z,50.08
2022-12-29T17:23:19.905Z,46.13
2022-12-29T17:25:52.862Z,46.90
2022-12-29T17:28:30.443Z,45.25
2022-12-29T17:31:13.243Z,43.75
2022-12-29T17:33:42.730Z,40.50
2022-12-29T17:36:11.715Z,40.63
2022-12-29T17:38:39.161Z,40.45
2022-12-29T17:41:14.634Z,42.80
2022-12-29T17:43:41.988Z,42.75
2022-12-29T17:46:09.400Z,41.42
2022-12-29T17:48:37.143Z,41.70
2022-12-29T17:51:04.535Z,42.88
2022-12-29T17:53:31.903Z,42.53
2022-12-29T17:55:59.250Z,45.78
2022-12-29T17:58:28.987Z,46.88
2022-12-29T18:00:59.671Z,46.03
2022-12-29T18:03:36.643Z,46.95
2022-12-29T18:06:08.538Z,47.20
2022-12-29T18:08:38.644Z,47.55
2022-12-29T18:11:26.778Z,48.08
2022-12-29T18:13:54.528Z,50.33
2022-12-29T18:16:31.427Z,51.85
2022-12-29T18:18:58.713Z,52.00
2022-12-29T18:21:26.033Z,51.40
2022-12-29T18:23:53.281Z,51.53
2022-12-29T18:26:28.652Z,53.53
2022-12-29T18:28:57.936Z,52.83
2022-12-29T18:31:30.144Z,54.72
2022-12-29T18:33:59.417Z,54.17
2022-12-29T18:36:27.281Z,53.45
2022-12-29T18:38:55.169Z,54.00
2022-12-29T18:41:29.737Z,53.15
2022-12-29T18:44:00.543Z,53.03
2022-12-29T18:46:34.239Z,52.53
2022-12-29T18:49:01.615Z,54.90
2022-12-29T18:51:29.344Z,53.42
2022-12-29T18:53:56.596Z,54.90
2022-12-29T18:56:25.711Z,54.10
2022-12-29T18:58:53.577Z,55.47
2022-12-29T19:01:24.417Z,58.40
2022-12-29T19:03:52.041Z,56.50
2022-12-29T19:06:21.172Z,57.22
2022-12-29T19:08:48.471Z,55.13
2022-12-29T19:11:16.229Z,58.97
2022-12-29T19:13:44.030Z,57.35
2022-12-29T19:16:20.190Z,58.00
2022-12-29T19:21:31.348Z,56.35
2022-12-29T19:23:58.564Z,56.65
2022-12-29T19:26:31.745Z,57.33
2022-12-29T19:29:00.100Z,57.72
2022-12-29T19:31:27.455Z,57.40
2022-12-29T19:33:55.124Z,59.60
2022-12-29T19:36:23.095Z,58.63
2022-12-29T19:38:50.380Z,61.65
2022-12-29T19:41:17.703Z,57.45
2022-12-29T19:43:45.052Z,55.55
2022-12-29T19:46:16.481Z,52.17
2022-12-29T19:48:43.933Z,50.53
2022-12-29T19:51:15.460Z,47.88
2022-12-29T19:53:44.226Z,47.58
2022-12-29T19:56:14.387Z,41.88
2022-12-29T19:58:46.924Z,43.92
2022-12-29T20:01:17.808Z,46.35
2022-12-29T20:03:45.188Z,47.17
2022-12-29T20:06:13.263Z,47.15
2022-12-29T20:08:40.835Z,49.08
2022-12-29T20:11:12.165Z,48.75
2022-12-29T20:13:40.440Z,46.13
2022-12-29T20:16:13.076Z,46.80
2022-12-29T20:18:40.570Z,48.35
2022-12-29T20:21:28.283Z,48.60
2022-12-29T20:23:56.281Z,46.65
2022-12-29T20:26:30.208Z,48.75
2022-12-29T20:28:58.580Z,46.85
2022-12-29T20:31:51.236Z,50.30
2022-12-29T20:34:19.477Z,48.67
2022-12-29T20:36:48.833Z,49.53
2022-12-29T20:39:19.284Z,52.25
2022-12-29T20:41:50.342Z,53.72
2022-12-29T20:44:42.782Z,51.88
2022-12-29T20:47:10.644Z,52.50
2022-12-29T20:49:39.347Z,52.05
2022-12-29T20:52:07.419Z,50.55
2022-12-29T20:54:39.122Z,49.30
2022-12-29T20:57:07.803Z,48.47
2022-12-29T20:59:35.241Z,50.33
2022-12-29T21:02:02.665Z,50.80
2022-12-29T21:04:49.943Z,43.00
2022-12-29T21:07:20.121Z,39.20
2022-12-29T21:09:50.595Z,38.83
2022-12-29T21:12:22.299Z,38.40
2022-12-29T21:14:50.323Z,39.05
2022-12-29T21:17:20.659Z,39.20
2022-12-29T21:23:23.098Z,38.17
2022-12-29T21:25:50.865Z,38.72
2022-12-29T21:28:23.070Z,39.92
2022-12-29T21:30:51.334Z,38.58
2022-12-29T21:33:43.327Z,39.08
2022-12-29T21:36:10.940Z,39.67
2022-12-29T21:38:38.241Z,39.30
2022-12-29T21:41:12.303Z,38.83
2022-12-29T21:43:40.259Z,38.25
2022-12-29T21:46:10.275Z,38.03
2022-12-29T21:48:37.820Z,35.47
2022-12-29T21:51:30.844Z,36.45
2022-12-29T21:54:20.978Z,34.08
2022-12-29T21:56:49.614Z,34.90
2022-12-29T22:00:03.086Z,35.40
2022-12-29T22:02:55.135Z,34.38
2022-12-29T22:05:42.016Z,35.15
2022-12-29T22:08:28.031Z,36.85
2022-12-29T22:11:14.053Z,37.38
2022-12-29T22:13:41.296Z,37.83
2022-12-29T22:16:11.035Z,38.70
2022-12-29T22:18:38.955Z,35.78
2022-12-29T22:21:11.083Z,37.72
2022-12-29T22:23:40.901Z,36.60
2022-12-29T22:26:14.170Z,37.58
2022-12-29T22:28:43.777Z,37.15
2022-12-29T22:31:40.716Z,35.30
2022-12-29T22:34:08.034Z,34.22
2022-12-29T22:36:40.801Z,36.08
2022-12-29T22:39:08.225Z,36.55
2022-12-29T22:41:47.207Z,36.08
2022-12-29T22:44:14.527Z,36.35
2022-12-29T22:46:41.808Z,36.70
2022-12-29T22:49:09.181Z,38.33
2022-12-29T22:51:36.531Z,39.22
2022-12-29T22:54:03.985Z,38.90
2022-12-29T22:56:31.228Z,38.13
2022-12-29T22:58:58.515Z,35.63
2022-12-29T23:01:27.072Z,35.45
2022-12-29T23:04:10.946Z,33.65
2022-12-29T23:06:42.683Z,34.78
2022-12-29T23:09:16.552Z,35.95
2022-12-29T23:11:44.374Z,35.25
2022-12-29T23:14:12.333Z,34.00
2022-12-29T23:16:44.308Z,35.78
2022-12-29T23:19:13.084Z,36.55
2022-12-29T23:21:40.487Z,35.90
2022-12-29T23:24:13.056Z,36.75
2022-12-29T23:26:45.305Z,34.67
2022-12-29T23:29:22.252Z,36.17
2022-12-29T23:31:50.328Z,36.35
2022-12-29T23:34:18.487Z,37.35
2022-12-29T23:36:46.647Z,38.55
2022-12-29T23:39:24.434Z,39.35
2022-12-29T23:41:52.550Z,38.67
2022-12-29T23:44:20.036Z,40.50
2022-12-29T23:46:47.401Z,39.42
2022-12-29T23:49:16.427Z,39.05
2022-12-29T23:51:44.287Z,38.35
2022-12-29T23:54:14.348Z,37.55
2022-12-29T23:56:44.821Z,39.50
2022-12-29T23:59:12.241Z,37.22
